Time;durP1;ratioP1;P1;durP2;ratioP2;P2;SDS_P1;SDS_P2;PMS_P1;PMS_P2;Temp;Humidity;BMP_temperature;BMP_pressure;BME280_temperature;BME280_humidity;BME280_pressure;Samples;Min_cycle;Max_cycle;Signal;HPM_P1;HPM_P2
2022/08/14 05:00:55;;;;;;;6.97;4.37;;;19.00;97.20;;;;;;1735478;28;20234;-70
2022/08/14 05:01:46;;;;;;;4.13;3.75;;;19.00;97.20;;;;;;1734921;28;20671;-70
2022/08/14 05:02:38;;;;;;;3.90;3.50;;;19.10;97.20;;;;;;1735200;28;20742;-71
2022/08/14 05:03:32;;;;;;;4.10;3.80;;;19.10;97.20;;;;;;1735262;28;20454;-71
2022/08/14 05:04:24;;;;;;;4.70;4.30;;;19.10;97.20;;;;;;1735265;28;20200;-71
2022/08/14 05:05:15;;;;;;;5.25;3.70;;;19.10;97.20;;;;;;1735123;28;20204;-71
2022/08/14 05:06:09;;;;;;;4.20;3.90;;;19.10;97.20;;;;;;1735205;28;20254;-71
2022/08/14 05:07:00;;;;;;;4.13;3.72;;;19.10;97.20;;;;;;1734856;28;20467;-71
2022/08/14 05:07:51;;;;;;;3.67;3.37;;;19.10;97.20;;;;;;1735214;28;20295;-71
2022/08/14 05:08:43;;;;;;;4.03;3.73;;;19.10;97.20;;;;;;1735094;28;20259;-71
2022/08/14 05:09:33;;;;;;;4.93;4.15;;;19.10;97.20;;;;;;1735168;28;20453;-71
2022/08/14 05:10:24;;;;;;;4.63;4.23;;;19.10;97.20;;;;;;1735224;28;20238;-71
2022/08/14 05:11:18;;;;;;;4.67;4.27;;;19.20;97.20;;;;;;1735155;28;20634;-71
2022/08/14 05:12:08;;;;;;;5.40;5.00;;;19.20;97.20;;;;;;1734919;28;20454;-70
2022/08/14 05:13:01;;;;;;;4.60;4.20;;;19.20;97.20;;;;;;1735229;28;20307;-71
2022/08/14 05:13:51;;;;;;;4.35;3.95;;;19.20;97.20;;;;;;1735097;28;20488;-71
2022/08/14 05:14:43;;;;;;;5.03;4.63;;;19.20;97.20;;;;;;1735002;28;20269;-71
2022/08/14 05:15:36;;;;;;;4.30;4.00;;;19.20;97.20;;;;;;1735127;28;20195;-71
2022/08/14 05:16:30;;;;;;;4.57;4.15;;;19.30;97.20;;;;;;1735100;28;20200;-71
2022/08/14 05:17:24;;;;;;;4.30;4.00;;;19.30;97.20;;;;;;1734777;28;20579;-71
2022/08/14 05:18:17;;;;;;;4.60;4.20;;;19.30;97.20;;;;;;1735080;28;20204;-70
2022/08/14 05:19:12;;;;;;;6.15;4.50;;;19.30;97.20;;;;;;1735137;28;20206;-71
2022/08/14 05:20:04;;;;;;;4.55;4.25;;;19.40;97.20;;;;;;1735203;28;20548;-71
2022/08/14 05:20:56;;;;;;;5.00;4.60;;;19.40;97.20;;;;;;1735178;28;20206;-71
2022/08/14 05:21:47;;;;;;;4.43;4.03;;;19.40;97.20;;;;;;1734829;28;20215;-71
2022/08/14 05:22:39;;;;;;;4.10;3.80;;;19.50;97.20;;;;;;1735144;28;20286;-71
2022/08/14 05:23:33;;;;;;;4.80;4.32;;;19.50;97.20;;;;;;1735062;28;20203;-71
2022/08/14 05:24:25;;;;;;;4.20;3.90;;;19.50;97.20;;;;;;1735056;28;20204;-70
2022/08/14 05:25:17;;;;;;;4.82;4.10;;;19.50;97.20;;;;;;1734978;28;20215;-71
2022/08/14 05:26:14;;;;;;;4.20;3.90;;;19.60;97.20;;;;;;1735003;28;20204;-71
2022/08/14 05:27:05;;;;;;;4.85;4.45;;;19.60;97.20;;;;;;1734768;28;20200;-71
2022/08/14 05:27:59;;;;;;;5.17;4.67;;;19.60;97.20;;;;;;1734973;28;20209;-71
2022/08/14 05:28:50;;;;;;;4.80;4.50;;;19.70;97.20;;;;;;1735082;28;20199;-71
2022/08/14 05:29:43;;;;;;;4.93;4.53;;;19.70;97.20;;;;;;1735102;28;20200;-71
2022/08/14 05:30:34;;;;;;;4.35;3.95;;;19.70;97.20;;;;;;1735037;28;20451;-71
2022/08/14 05:31:26;;;;;;;4.90;4.57;;;19.70;97.20;;;;;;1734838;28;20200;-70
2022/08/14 05:32:18;;;;;;;8.40;4.53;;;19.80;97.20;;;;;;1734965;28;20921;-71
2022/08/14 05:33:11;;;;;;;5.35;4.43;;;19.80;97.20;;;;;;1735073;28;20215;-71
2022/08/14 05:34:02;;;;;;;6.80;4.50;;;19.80;97.20;;;;;;1735082;28;20802;-71
2022/08/14 05:34:56;;;;;;;4.70;4.30;;;19.80;97.20;;;;;;1734957;28;20643;-71
2022/08/14 05:35:47;;;;;;;5.53;5.03;;;19.80;97.20;;;;;;1735058;28;20199;-71
2022/08/14 05:36:39;;;;;;;5.55;5.10;;;19.80;97.20;;;;;;1734913;28;20196;-71
2022/08/14 05:37:30;;;;;;;5.45;5.05;;;19.80;97.20;;;;;;1734496;28;20204;-71
2022/08/14 05:38:22;;;;;;;5.07;4.57;;;19.90;97.20;;;;;;1734952;28;20639;-71
2022/08/14 05:39:13;;;;;;;6.53;5.90;;;19.90;97.20;;;;;;1734960;28;20207;-71
2022/08/14 05:40:06;;;;;;;5.70;5.20;;;19.90;97.20;;;;;;1735026;28;20199;-71
2022/08/14 05:40:58;;;;;;;5.10;4.70;;;19.90;97.20;;;;;;1734990;28;20207;-70
2022/08/14 05:41:50;;;;;;;5.95;4.85;;;19.90;97.20;;;;;;1734669;28;20200;-71
2022/08/14 05:42:41;;;;;;;5.13;4.35;;;19.90;97.20;;;;;;1735008;28;20204;-71
2022/08/14 05:43:33;;;;;;;5.67;5.27;;;19.90;97.20;;;;;;1734955;28;20686;-71
2022/08/14 05:44:24;;;;;;;5.20;4.20;;;19.90;97.20;;;;;;1734980;28;20570;-71
2022/08/14 05:45:16;;;;;;;4.97;4.57;;;19.90;97.20;;;;;;1734992;28;20571;-71
2022/08/14 05:46:08;;;;;;;5.13;4.63;;;19.90;97.20;;;;;;1734886;28;20220;-71
2022/08/14 05:47:00;;;;;;;5.13;4.72;;;19.90;97.20;;;;;;1734642;28;20200;-71
2022/08/14 05:47:53;;;;;;;4.43;4.00;;;19.90;97.20;;;;;;1734904;28;20568;-71
2022/08/14 05:48:47;;;;;;;4.65;4.25;;;20.00;97.20;;;;;;1734865;28;20200;-70
2022/08/14 05:49:38;;;;;;;4.50;4.10;;;20.00;97.20;;;;;;1735018;28;20204;-71
2022/08/14 05:50:31;;;;;;;4.90;4.53;;;20.00;97.20;;;;;;1735016;28;20245;-71
2022/08/14 05:51:23;;;;;;;5.43;4.82;;;20.00;97.20;;;;;;1734919;28;20204;-71
2022/08/14 05:52:14;;;;;;;4.50;4.18;;;20.00;97.20;;;;;;1734639;28;20605;-71
2022/08/14 05:53:05;;;;;;;4.53;4.13;;;20.00;97.20;;;;;;1734792;28;20196;-71
2022/08/14 05:53:57;;;;;;;4.40;4.00;;;20.00;97.20;;;;;;1734860;28;20204;-71
2022/08/14 05:54:48;;;;;;;4.50;4.10;;;20.10;97.20;;;;;;1734819;28;20282;-70
2022/08/14 05:55:40;;;;;;;4.70;4.40;;;20.10;97.20;;;;;;1734791;28;20236;-70
2022/08/14 05:56:31;;;;;;;4.85;4.45;;;20.10;97.20;;;;;;1734840;28;20246;-70
2022/08/14 05:57:23;;;;;;;4.70;4.30;;;20.20;97.20;;;;;;1734539;28;20221;-71
2022/08/14 05:58:15;;;;;;;4.90;4.50;;;20.20;97.20;;;;;;1734874;28;20218;-71
2022/08/14 05:59:06;;;;;;;4.80;4.40;;;20.20;97.20;;;;;;1734343;28;20199;-71
2022/08/14 05:59:57;;;;;;;4.82;4.53;;;20.20;97.20;;;;;;1734808;28;20195;-71
2022/08/14 06:00:49;;;;;;;3.90;3.60;;;20.20;97.20;;;;;;1734937;28;20286;-70
2022/08/14 06:01:40;;;;;;;4.90;4.50;;;20.20;97.20;;;;;;1734521;28;20207;-71
2022/08/14 06:02:32;;;;;;;4.27;3.87;;;20.20;97.20;;;;;;1734882;28;20235;-71
2022/08/14 06:03:25;;;;;;;4.82;4.43;;;20.20;97.20;;;;;;1734893;28;20710;-71
2022/08/14 06:04:16;;;;;;;5.53;4.75;;;20.30;97.20;;;;;;1734840;28;20727;-70
2022/08/14 06:05:08;;;;;;;4.97;4.57;;;20.30;97.20;;;;;;1734823;28;20224;-71
2022/08/14 06:05:59;;;;;;;7.47;4.90;;;20.30;97.20;;;;;;1734684;28;20224;-71
2022/08/14 06:06:51;;;;;;;4.40;3.97;;;20.30;97.20;;;;;;1734531;28;20287;-71
2022/08/14 06:07:42;;;;;;;4.72;4.32;;;20.30;97.20;;;;;;1734784;28;20438;-71
2022/08/14 06:08:34;;;;;;;4.90;4.50;;;20.30;97.20;;;;;;1734740;28;20287;-71
2022/08/14 06:09:24;;;;;;;4.70;4.30;;;20.40;97.20;;;;;;1734986;28;20453;-71
2022/08/14 06:10:16;;;;;;;4.50;4.20;;;20.40;97.20;;;;;;1734756;28;20286;-71
2022/08/14 06:11:08;;;;;;;4.88;4.47;;;20.40;97.20;;;;;;1734880;28;20210;-71
2022/08/14 06:12:00;;;;;;;4.95;4.55;;;20.50;97.20;;;;;;1734431;28;20196;-71
2022/08/14 06:12:51;;;;;;;5.53;5.00;;;20.50;97.20;;;;;;1734904;28;20196;-71
2022/08/14 06:13:43;;;;;;;4.77;4.27;;;20.50;97.20;;;;;;1734847;28;20675;-71
2022/08/14 06:14:34;;;;;;;5.10;4.55;;;20.50;97.20;;;;;;1734542;28;20453;-71
2022/08/14 06:15:26;;;;;;;5.20;4.80;;;20.60;97.20;;;;;;1734818;28;20204;-71
2022/08/14 06:16:17;;;;;;;5.10;4.70;;;20.60;97.20;;;;;;1734712;28;20447;-71
2022/08/14 06:17:09;;;;;;;5.30;4.90;;;20.60;97.20;;;;;;1734471;28;20259;-71
2022/08/14 06:18:00;;;;;;;5.10;4.53;;;20.70;97.20;;;;;;1734757;28;20547;-70
2022/08/14 06:18:53;;;;;;;4.70;4.30;;;20.70;97.20;;;;;;1734847;28;20231;-71
2022/08/14 06:19:43;;;;;;;4.68;4.30;;;20.70;97.20;;;;;;1734822;28;20662;-70
2022/08/14 06:20:35;;;;;;;4.57;4.27;;;20.70;97.20;;;;;;1734379;28;20636;-71
2022/08/14 06:21:26;;;;;;;4.88;4.50;;;20.70;97.20;;;;;;1734890;28;20211;-70
2022/08/14 06:22:18;;;;;;;4.77;4.47;;;20.80;97.20;;;;;;1734762;28;20202;-71
2022/08/14 06:23:09;;;;;;;4.90;4.22;;;20.80;97.20;;;;;;1734789;28;20211;-70
2022/08/14 06:24:01;;;;;;;4.45;4.05;;;20.80;97.20;;;;;;1734758;28;20230;-71
2022/08/14 06:24:51;;;;;;;7.18;5.03;;;20.80;97.20;;;;;;1734627;28;20219;-71
2022/08/14 06:25:43;;;;;;;4.47;4.17;;;20.90;97.20;;;;;;1734627;28;20287;-71
2022/08/14 06:26:34;;;;;;;4.93;4.25;;;20.90;97.20;;;;;;1734748;28;20568;-71
2022/08/14 06:27:26;;;;;;;5.07;4.28;;;20.90;97.20;;;;;;1734491;28;20283;-70
2022/08/14 06:28:17;;;;;;;4.30;4.00;;;21.00;97.20;;;;;;1734677;28;20203;-71
2022/08/14 06:29:10;;;;;;;4.68;4.28;;;21.00;97.20;;;;;;1734716;28;20196;-71
2022/08/14 06:30:01;;;;;;;4.10;3.80;;;21.10;97.20;;;;;;1734494;28;20870;-70
2022/08/14 06:30:53;;;;;;;5.47;4.00;;;21.10;97.20;;;;;;1734677;28;20298;-71
2022/08/14 06:31:44;;;;;;;4.10;3.70;;;21.10;97.20;;;;;;1734670;28;20199;-71
2022/08/14 06:32:36;;;;;;;4.33;3.93;;;21.10;97.20;;;;;;1734583;28;20286;-71
2022/08/14 06:33:27;;;;;;;5.50;4.00;;;21.20;97.20;;;;;;1734728;28;20663;-71
2022/08/14 06:34:20;;;;;;;4.13;3.27;;;21.20;97.20;;;;;;1734636;28;20636;-71
2022/08/14 06:35:13;;;;;;;3.97;3.67;;;21.20;97.20;;;;;;1734520;28;20220;-71
2022/08/14 06:36:05;;;;;;;4.10;3.80;;;21.30;97.20;;;;;;1734734;28;20196;-71
2022/08/14 06:36:56;;;;;;;4.18;3.88;;;21.30;97.20;;;;;;1734183;28;20689;-71
2022/08/14 06:37:50;;;;;;;4.30;3.60;;;21.40;97.20;;;;;;1734654;28;20628;-71
2022/08/14 06:38:41;;;;;;;3.53;3.33;;;21.40;97.20;;;;;;1734588;28;20199;-71
2022/08/14 06:39:33;;;;;;;3.67;3.37;;;21.40;97.20;;;;;;1734467;28;20210;-70
2022/08/14 06:40:26;;;;;;;4.88;4.00;;;21.50;97.20;;;;;;1734390;28;20261;-71
2022/08/14 06:41:18;;;;;;;4.68;3.80;;;21.50;97.20;;;;;;1734510;28;20211;-71
2022/08/14 06:42:09;;;;;;;4.05;3.67;;;21.50;97.20;;;;;;1734658;28;20207;-71
2022/08/14 06:43:02;;;;;;;4.50;4.03;;;21.50;97.20;;;;;;1734705;28;20196;-70
2022/08/14 06:43:52;;;;;;;3.70;3.50;;;21.60;97.20;;;;;;1734624;28;20248;-71
2022/08/14 06:44:44;;;;;;;4.07;3.77;;;21.60;97.20;;;;;;1734693;28;20220;-71
2022/08/14 06:45:37;;;;;;;3.65;3.35;;;21.60;97.20;;;;;;1734754;28;20734;-71
2022/08/14 06:46:29;;;;;;;3.40;3.20;;;21.60;97.20;;;;;;1734593;28;20717;-71
2022/08/14 06:47:20;;;;;;;4.00;3.70;;;21.70;97.20;;;;;;1734323;28;20269;-71
2022/08/14 06:48:16;;;;;;;3.70;3.33;;;21.70;97.20;;;;;;1734650;28;20204;-71
2022/08/14 06:49:07;;;;;;;3.10;2.90;;;21.70;97.20;;;;;;1734630;28;20207;-71
2022/08/14 06:50:00;;;;;;;3.80;3.50;;;21.70;97.20;;;;;;1734426;28;20204;-70
2022/08/14 06:50:53;;;;;;;4.53;3.55;;;21.70;97.20;;;;;;1727626;28;20208;-71
2022/08/14 06:51:45;;;;;;;3.55;3.25;;;21.80;97.20;;;;;;1727732;28;20216;-71
2022/08/14 06:52:38;;;;;;;3.50;3.25;;;21.80;97.20;;;;;;1727701;28;20208;-71
2022/08/14 06:53:29;;;;;;;3.40;3.15;;;21.80;97.20;;;;;;1727771;28;20240;-71
2022/08/14 06:54:20;;;;;;;5.60;3.43;;;21.80;97.20;;;;;;1727648;28;20216;-71
2022/08/14 06:55:13;;;;;;;3.38;3.08;;;21.90;97.20;;;;;;1727690;28;20476;-71
2022/08/14 06:56:05;;;;;;;3.65;3.45;;;21.90;97.20;;;;;;1727678;28;20197;-71
2022/08/14 06:56:57;;;;;;;3.40;3.20;;;21.90;97.20;;;;;;1727326;28;20211;-71
2022/08/14 06:57:50;;;;;;;3.63;3.33;;;22.00;97.20;;;;;;1727773;28;20279;-71
2022/08/14 06:58:40;;;;;;;3.70;3.40;;;22.00;97.20;;;;;;1730351;28;20200;-71
2022/08/14 06:59:32;;;;;;;3.90;3.60;;;22.10;97.20;;;;;;1734476;28;20286;-71
2022/08/14 07:00:26;;;;;;;3.35;3.05;;;22.10;97.20;;;;;;1734533;28;20211;-70
2022/08/14 07:05:56;;;;;;;3.55;3.25;;;22.30;97.20;;;;;;1734567;28;20199;-71
2022/08/14 07:06:46;;;;;;;3.40;3.03;;;22.40;97.20;;;;;;1734092;28;20203;-71
2022/08/14 07:07:39;;;;;;;3.33;3.07;;;22.40;97.20;;;;;;1734383;28;20290;-71
2022/08/14 07:08:30;;;;;;;6.72;2.83;;;22.50;97.20;;;;;;1734086;28;20231;-70
2022/08/14 07:09:21;;;;;;;3.50;3.30;;;22.50;97.20;;;;;;1734454;28;20691;-71
2022/08/14 07:10:12;;;;;;;3.70;3.05;;;22.60;97.20;;;;;;1734219;28;20206;-71
2022/08/14 07:11:04;;;;;;;4.93;3.17;;;22.60;97.20;;;;;;1733871;28;20198;-71
2022/08/14 07:11:55;;;;;;;3.00;2.80;;;22.60;97.20;;;;;;1734379;28;20230;-71
2022/08/14 07:12:47;;;;;;;3.40;3.20;;;22.70;97.20;;;;;;1734496;28;20200;-71
2022/08/14 07:13:38;;;;;;;4.45;3.47;;;22.70;97.20;;;;;;1734389;28;20208;-71
2022/08/14 07:14:30;;;;;;;3.05;2.85;;;22.70;97.20;;;;;;1734290;28;20240;-71
2022/08/14 07:15:21;;;;;;;3.08;2.88;;;22.80;97.20;;;;;;1734474;28;20238;-71
2022/08/14 07:16:12;;;;;;;3.00;2.80;;;22.80;97.20;;;;;;1734393;28;20278;-71
2022/08/14 07:17:03;;;;;;;3.35;3.15;;;22.80;97.20;;;;;;1734099;28;20678;-71
2022/08/14 07:17:55;;;;;;;3.40;3.10;;;22.90;97.20;;;;;;1734338;28;20632;-71
2022/08/14 07:18:46;;;;;;;3.30;3.10;;;22.90;97.20;;;;;;1733971;28;20462;-71
2022/08/14 07:19:38;;;;;;;3.70;3.43;;;22.90;97.20;;;;;;1734409;28;20485;-71
2022/08/14 07:20:29;;;;;;;4.63;3.10;;;22.90;97.20;;;;;;1734458;28;20203;-71
2022/08/14 07:21:22;;;;;;;4.18;3.45;;;23.00;97.20;;;;;;1734321;28;20287;-71
2022/08/14 07:22:12;;;;;;;3.65;3.10;;;23.00;97.20;;;;;;1734345;28;20208;-70
2022/08/14 07:23:06;;;;;;;5.87;3.20;;;23.00;97.20;;;;;;1734453;28;20279;-71
2022/08/14 07:23:57;;;;;;;3.55;3.25;;;23.00;97.20;;;;;;1734259;28;20200;-71
2022/08/14 07:24:49;;;;;;;4.03;3.73;;;23.00;97.20;;;;;;1734289;28;20302;-71
2022/08/14 07:25:42;;;;;;;3.20;2.90;;;23.00;97.20;;;;;;1734348;28;20439;-71
2022/08/14 07:26:34;;;;;;;3.40;3.20;;;23.00;97.20;;;;;;1734218;28;20223;-71
2022/08/14 07:27:24;;;;;;;3.10;2.90;;;23.00;97.20;;;;;;1734009;28;20212;-71
2022/08/14 07:28:18;;;;;;;3.53;3.23;;;23.00;97.20;;;;;;1734171;28;20235;-71
2022/08/14 07:29:09;;;;;;;3.90;2.95;;;23.00;97.20;;;;;;1734033;28;20200;-70
2022/08/14 07:30:03;;;;;;;3.50;3.20;;;23.10;97.20;;;;;;1734290;28;20287;-71
2022/08/14 07:30:56;;;;;;;3.50;3.20;;;23.10;97.20;;;;;;1734277;28;20215;-71
2022/08/14 07:31:48;;;;;;;3.25;3.05;;;23.20;97.20;;;;;;1734291;28;20198;-70
2022/08/14 07:32:39;;;;;;;3.42;3.00;;;23.20;97.20;;;;;;1734244;28;20241;-71
2022/08/14 07:33:33;;;;;;;2.97;2.77;;;23.30;97.20;;;;;;1734317;28;20207;-70
2022/08/14 07:34:23;;;;;;;2.90;2.70;;;23.30;97.20;;;;;;1734256;28;20307;-70
2022/08/14 07:35:15;;;;;;;6.20;2.73;;;23.40;97.20;;;;;;1734311;28;20322;-71
2022/08/14 07:36:10;;;;;;;4.90;2.95;;;23.40;97.20;;;;;;1734362;28;20219;-71
2022/08/14 07:37:02;;;;;;;3.85;2.88;;;23.50;97.20;;;;;;1733935;28;20203;-71
2022/08/14 07:37:54;;;;;;;3.40;3.10;;;23.50;97.20;;;;;;1734220;28;20204;-71
2022/08/14 07:38:45;;;;;;;3.65;3.10;;;23.60;97.20;;;;;;1734056;28;20207;-71
2022/08/14 07:39:37;;;;;;;3.23;2.87;;;23.60;97.20;;;;;;1734172;28;20291;-71
2022/08/14 07:40:27;;;;;;;3.53;3.33;;;23.70;97.20;;;;;;1734280;28;20446;-71
2022/08/14 07:41:19;;;;;;;3.17;2.90;;;23.70;97.20;;;;;;1734232;28;20290;-71
2022/08/14 07:42:10;;;;;;;3.03;2.83;;;23.80;97.20;;;;;;1734251;28;20571;-71
2022/08/14 07:43:02;;;;;;;4.50;3.80;;;23.80;97.20;;;;;;1734216;28;20615;-71
2022/08/14 07:43:52;;;;;;;3.55;3.30;;;23.90;97.20;;;;;;1734177;28;20200;-71
2022/08/14 07:44:44;;;;;;;3.63;3.33;;;23.90;97.20;;;;;;1734199;28;20330;-70
2022/08/14 07:45:35;;;;;;;3.25;3.05;;;24.00;97.20;;;;;;1734255;28;20572;-71
2022/08/14 07:46:27;;;;;;;3.63;3.33;;;24.00;97.20;;;;;;1734252;28;20636;-71
2022/08/14 07:47:18;;;;;;;3.60;3.28;;;24.10;97.20;;;;;;1733857;28;20446;-71
2022/08/14 07:48:10;;;;;;;4.23;3.23;;;24.10;97.20;;;;;;1734190;28;20203;-71
2022/08/14 07:49:01;;;;;;;3.97;3.42;;;24.20;97.20;;;;;;1733969;28;20200;-71
2022/08/14 07:50:00;;;;;;;3.50;3.30;;;24.20;97.20;;;;;;1734251;28;20210;-70
2022/08/14 07:50:51;;;;;;;3.20;2.85;;;24.30;97.20;;;;;;1734223;28;20211;-71
2022/08/14 07:51:43;;;;;;;4.82;3.17;;;24.30;97.20;;;;;;1734204;28;20200;-70
2022/08/14 07:52:37;;;;;;;3.15;2.80;;;24.40;97.20;;;;;;1734136;28;20231;-70
2022/08/14 07:53:29;;;;;;;4.20;3.50;;;24.40;97.20;;;;;;1734203;28;20287;-71
2022/08/14 07:54:20;;;;;;;4.25;3.15;;;24.40;97.20;;;;;;1734191;28;20214;-71
2022/08/14 07:55:15;;;;;;;4.07;3.28;;;24.50;97.20;;;;;;1734079;28;20224;-71
2022/08/14 07:56:06;;;;;;;3.17;2.97;;;24.50;97.20;;;;;;1734182;28;20208;-71
2022/08/14 07:56:59;;;;;;;3.83;3.00;;;24.60;97.20;;;;;;1733733;28;20218;-71
2022/08/14 07:57:50;;;;;;;4.65;3.30;;;24.60;97.20;;;;;;1734155;28;20259;-71
2022/08/14 07:58:42;;;;;;;3.30;3.10;;;24.70;97.20;;;;;;1733845;28;20200;-71
2022/08/14 07:59:33;;;;;;;5.63;3.00;;;24.70;97.20;;;;;;1734167;28;20215;-71
2022/08/14 08:00:27;;;;;;;3.10;2.70;;;24.70;97.20;;;;;;1734149;28;20231;-71
2022/08/14 08:01:18;;;;;;;2.92;2.63;;;24.80;97.20;;;;;;1733955;28;20199;-71
2022/08/14 08:02:11;;;;;;;8.73;3.00;;;24.80;97.20;;;;;;1734186;28;20253;-71
2022/08/14 08:03:08;;;;;;;3.95;3.65;;;24.80;97.20;;;;;;1734106;28;20446;-71
2022/08/14 08:04:02;;;;;;;3.20;2.88;;;24.80;97.20;;;;;;1734153;28;20286;-71
2022/08/14 08:04:54;;;;;;;3.47;3.20;;;24.90;97.20;;;;;;1734081;28;20220;-71
2022/08/14 08:05:45;;;;;;;3.25;2.95;;;24.90;97.20;;;;;;1734168;28;20204;-71
2022/08/14 08:06:38;;;;;;;3.10;2.90;;;25.00;97.20;;;;;;1734036;28;20279;-71
2022/08/14 08:07:30;;;;;;;3.50;3.30;;;25.00;97.20;;;;;;1733827;28;20211;-71
2022/08/14 08:08:24;;;;;;;3.03;2.72;;;25.00;97.20;;;;;;1734029;28;20200;-71
2022/08/14 08:09:18;;;;;;;3.63;2.75;;;25.00;97.20;;;;;;1733767;28;20203;-71
2022/08/14 08:10:31;;;;;;;3.70;3.40;;;25.00;97.20;;;;;;1734095;28;20689;-71
2022/08/14 08:11:21;;;;;;;4.93;2.95;;;25.00;97.20;;;;;;1733996;28;20732;-71
2022/08/14 08:12:15;;;;;;;3.90;3.17;;;25.10;97.20;;;;;;1734136;28;20579;-70
2022/08/14 08:13:09;;;;;;;3.60;3.40;;;25.10;97.20;;;;;;1734089;28;20211;-71
2022/08/14 08:14:05;;;;;;;3.28;3.08;;;25.10;97.20;;;;;;1734138;28;20275;-70
2022/08/14 08:14:58;;;;;;;4.80;3.47;;;25.10;97.20;;;;;;1733981;28;20232;-70
2022/08/14 08:15:52;;;;;;;3.53;3.23;;;25.10;97.20;;;;;;1734110;28;20200;-71
2022/08/14 08:16:45;;;;;;;3.10;2.90;;;25.10;97.20;;;;;;1733909;28;20446;-71
2022/08/14 08:17:38;;;;;;;3.40;3.10;;;25.20;97.20;;;;;;1734101;28;20209;-71
2022/08/14 08:18:29;;;;;;;3.50;2.87;;;25.10;97.20;;;;;;1734048;28;20199;-70
2022/08/14 08:19:20;;;;;;;3.30;3.00;;;25.10;97.20;;;;;;1733721;28;20469;-71
2022/08/14 08:20:15;;;;;;;6.07;3.30;;;25.20;97.20;;;;;;1734069;28;20290;-72
2022/08/14 08:21:08;;;;;;;3.20;3.00;;;25.20;97.20;;;;;;1734254;28;20941;-71
2022/08/14 08:21:59;;;;;;;3.05;2.85;;;25.20;97.20;;;;;;1734236;28;20238;-71
2022/08/14 08:22:54;;;;;;;3.38;3.17;;;25.30;97.20;;;;;;1735507;28;20686;-71
2022/08/14 08:23:46;;;;;;;4.05;3.00;;;25.30;97.20;;;;;;1735556;28;20211;-70
2022/08/14 08:24:38;;;;;;;4.20;3.33;;;25.30;97.20;;;;;;1735376;28;20203;-71
2022/08/14 08:25:30;;;;;;;3.60;3.30;;;25.30;97.20;;;;;;1735513;28;20204;-71
2022/08/14 08:26:29;;;;;;;4.40;3.20;;;25.30;97.20;;;;;;1735553;28;20247;-71
2022/08/14 08:27:20;;;;;;;3.30;3.05;;;25.40;97.20;;;;;;1735223;28;20918;-71
2022/08/14 08:28:14;;;;;;;3.10;2.80;;;25.40;97.20;;;;;;1735348;28;20588;-71
2022/08/14 08:29:05;;;;;;;3.83;3.05;;;25.40;97.20;;;;;;1735242;28;20203;-71
2022/08/14 08:30:08;;;;;;;3.07;2.77;;;25.40;97.20;;;;;;1735194;28;20203;-71
2022/08/14 08:31:00;;;;;;;4.72;2.78;;;25.50;97.20;;;;;;1735487;28;20211;-71
2022/08/14 08:31:52;;;;;;;3.13;2.90;;;25.50;97.20;;;;;;1735473;28;20205;-71
2022/08/14 08:32:44;;;;;;;2.80;2.60;;;25.50;97.20;;;;;;1735452;28;20200;-71
2022/08/14 08:33:37;;;;;;;7.47;2.80;;;25.60;97.20;;;;;;1735360;28;20457;-70
2022/08/14 08:34:28;;;;;;;2.58;2.38;;;25.60;97.20;;;;;;1735286;28;20485;-73
2022/08/14 08:35:22;;;;;;;3.37;3.07;;;25.60;97.20;;;;;;1735420;28;20206;-73
2022/08/14 08:36:13;;;;;;;3.53;3.23;;;25.60;97.20;;;;;;1735446;28;20334;-73
2022/08/14 08:37:05;;;;;;;3.07;2.87;;;25.60;97.20;;;;;;1735042;28;20496;-73
2022/08/14 08:38:01;;;;;;;3.40;3.10;;;25.70;97.20;;;;;;1735408;28;20529;-71
2022/08/14 08:39:00;;;;;;;2.97;2.70;;;25.70;97.20;;;;;;1735341;28;20501;-71
2022/08/14 08:39:51;;;;;;;4.23;2.80;;;25.70;97.20;;;;;;1735432;28;20957;-71
2022/08/14 08:40:44;;;;;;;2.63;2.43;;;25.70;97.20;;;;;;1735474;28;20872;-73
2022/08/14 08:41:40;;;;;;;3.00;2.70;;;25.80;97.20;;;;;;1735344;28;20517;-73
2022/08/14 08:42:32;;;;;;;2.93;2.67;;;25.80;97.20;;;;;;1735461;28;20199;-71
2022/08/14 08:43:28;;;;;;;3.05;2.70;;;25.80;97.20;;;;;;1735430;28;20450;-71
2022/08/14 08:44:20;;;;;;;3.93;2.87;;;25.90;97.20;;;;;;1735557;28;20682;-71
2022/08/14 08:45:14;;;;;;;3.30;3.10;;;25.90;97.20;;;;;;1735323;28;20511;-71
2022/08/14 08:46:08;;;;;;;3.78;3.10;;;26.00;97.20;;;;;;1735368;28;20453;-70
2022/08/14 08:47:03;;;;;;;9.13;3.47;;;26.00;97.20;;;;;;1734908;28;20280;-71
2022/08/14 08:47:55;;;;;;;3.33;3.13;;;26.00;97.20;;;;;;1735352;28;20438;-71
2022/08/14 08:48:48;;;;;;;2.70;2.50;;;26.00;97.20;;;;;;1735055;28;20210;-71
2022/08/14 08:49:42;;;;;;;6.03;2.90;;;26.00;97.20;;;;;;1735423;28;20443;-71
2022/08/14 08:50:37;;;;;;;3.03;2.50;;;25.90;97.20;;;;;;1735314;28;20480;-71
2022/08/14 08:51:31;;;;;;;3.50;3.00;;;25.90;97.20;;;;;;1735387;28;21226;-70
2022/08/14 08:52:22;;;;;;;3.10;2.77;;;25.90;97.20;;;;;;1735328;28;20469;-71
2022/08/14 08:53:14;;;;;;;4.63;3.00;;;25.90;97.20;;;;;;1735266;28;20945;-71
2022/08/14 08:54:08;;;;;;;6.38;3.30;;;25.90;97.20;;;;;;1735369;28;20453;-71
2022/08/14 08:55:00;;;;;;;4.47;3.55;;;25.90;97.20;;;;;;1735185;28;20645;-71
2022/08/14 08:55:51;;;;;;;3.00;2.60;;;25.90;97.20;;;;;;1735271;28;20239;-71
2022/08/14 08:56:44;;;;;;;4.27;2.93;;;25.90;97.20;;;;;;1735228;28;20438;-71
2022/08/14 08:57:35;;;;;;;3.60;2.90;;;25.90;97.20;;;;;;1735326;28;20595;-71
2022/08/14 08:58:28;;;;;;;3.63;2.80;;;25.90;97.20;;;;;;1735228;28;20952;-71
2022/08/14 08:59:20;;;;;;;3.40;3.10;;;26.00;97.20;;;;;;1735097;28;20465;-71
2022/08/14 09:00:15;;;;;;;4.47;2.80;;;26.00;97.20;;;;;;1735284;28;20514;-71
2022/08/14 09:01:05;;;;;;;3.13;2.60;;;26.10;97.20;;;;;;1735158;28;20855;-71
2022/08/14 09:02:00;;;;;;;2.93;2.73;;;26.10;97.20;;;;;;1735238;28;20446;-71
2022/08/14 09:02:56;;;;;;;2.90;2.70;;;26.20;97.20;;;;;;1735336;28;21080;-71
2022/08/14 09:03:48;;;;;;;3.00;2.80;;;26.20;97.20;;;;;;1735325;28;20450;-71
2022/08/14 09:04:40;;;;;;;2.73;2.53;;;26.30;97.20;;;;;;1735171;28;20447;-71
2022/08/14 09:05:34;;;;;;;3.53;3.20;;;26.30;97.20;;;;;;1735263;28;20481;-71
2022/08/14 09:06:25;;;;;;;3.50;3.20;;;26.30;97.20;;;;;;1735276;28;20450;-71
2022/08/14 09:07:17;;;;;;;3.30;3.10;;;26.30;97.20;;;;;;1734745;28;20577;-71
2022/08/14 09:08:13;;;;;;;3.00;2.70;;;26.30;97.20;;;;;;1735177;28;20257;-71
2022/08/14 09:09:17;;;;;;;4.07;3.67;;;26.30;97.20;;;;;;1734884;28;20455;-71
2022/08/14 09:10:08;;;;;;;3.47;3.27;;;26.40;97.20;;;;;;1735246;28;20445;-70
2022/08/14 09:11:02;;;;;;;4.03;2.90;;;26.40;97.20;;;;;;1735171;28;20529;-71
2022/08/14 09:11:54;;;;;;;3.20;2.90;;;26.50;97.20;;;;;;1735378;28;20529;-71
2022/08/14 09:12:47;;;;;;;3.30;3.10;;;26.50;97.20;;;;;;1735491;28;20434;-73
2022/08/14 09:13:38;;;;;;;3.30;3.10;;;26.50;97.20;;;;;;1735356;28;20454;-74
2022/08/14 09:14:33;;;;;;;3.40;3.20;;;26.60;97.20;;;;;;1736334;28;20516;-73
2022/08/14 09:15:26;;;;;;;3.50;3.20;;;26.60;97.20;;;;;;1735276;28;20563;-73
2022/08/14 09:16:21;;;;;;;2.60;2.47;;;26.70;97.20;;;;;;1735155;28;20453;-71
2022/08/14 09:17:12;;;;;;;3.40;3.10;;;26.70;97.20;;;;;;1734909;28;20446;-72
2022/08/14 09:18:04;;;;;;;2.53;2.33;;;26.80;97.20;;;;;;1735220;28;20450;-71
2022/08/14 09:18:55;;;;;;;2.83;2.63;;;26.80;97.20;;;;;;1735187;28;20208;-71
2022/08/14 09:19:48;;;;;;;4.80;3.00;;;26.90;97.20;;;;;;1735161;28;20434;-71
2022/08/14 09:20:40;;;;;;;5.47;3.10;;;26.90;97.20;;;;;;1728313;28;20439;-71
2022/08/14 09:21:34;;;;;;;3.33;3.03;;;26.90;97.20;;;;;;1728480;28;20478;-71
2022/08/14 09:22:25;;;;;;;2.87;2.67;;;27.00;97.20;;;;;;1728320;28;20443;-71
2022/08/14 09:23:17;;;;;;;3.00;2.80;;;27.00;97.20;;;;;;1728335;28;20477;-71
2022/08/14 09:24:09;;;;;;;3.20;3.00;;;27.10;97.20;;;;;;1728360;28;20440;-71
2022/08/14 09:25:01;;;;;;;3.20;2.87;;;27.10;97.20;;;;;;1728205;28;20467;-72
2022/08/14 09:25:53;;;;;;;3.10;2.90;;;27.10;97.20;;;;;;1728415;28;20443;-71
2022/08/14 09:26:45;;;;;;;4.17;2.77;;;27.10;97.20;;;;;;1728132;28;20450;-71
2022/08/14 09:27:36;;;;;;;2.93;2.73;;;27.20;97.20;;;;;;1728155;28;20891;-71
2022/08/14 09:28:28;;;;;;;2.67;2.47;;;27.20;97.20;;;;;;1728281;28;20479;-71
2022/08/14 09:29:19;;;;;;;3.50;3.20;;;27.30;97.20;;;;;;1732393;28;20950;-71
2022/08/14 09:30:11;;;;;;;3.17;2.97;;;27.30;97.20;;;;;;1734989;28;20941;-71
2022/08/14 09:31:03;;;;;;;3.73;3.10;;;27.40;97.20;;;;;;1735087;28;20685;-71
2022/08/14 09:31:58;;;;;;;3.20;3.00;;;27.40;97.20;;;;;;1735071;28;20500;-71
2022/08/14 09:33:02;;;;;;;3.30;3.00;;;27.50;97.00;;;;;;1735136;28;20920;-71
2022/08/14 09:34:07;;;;;;;4.43;3.30;;;27.50;96.60;;;;;;1734131;28;20470;-71
2022/08/14 09:35:08;;;;;;;3.73;3.43;;;27.50;96.70;;;;;;1734975;28;20475;-71
2022/08/14 09:36:27;;;;;;;3.30;3.10;;;27.50;96.90;;;;;;1735101;28;20466;-71
2022/08/14 09:37:31;;;;;;;6.00;3.17;;;27.50;96.30;;;;;;1734731;28;20928;-71
2022/08/14 09:38:31;;;;;;;5.53;3.17;;;27.50;95.90;;;;;;1735171;28;20471;-71
2022/08/14 09:39:39;;;;;;;3.10;2.90;;;27.50;96.10;;;;;;1734856;28;20820;-71